sensor_id;sensor_type;location;lat;lon;timestamp;P1;durP1;ratioP1;P2;durP2;ratioP2
14094;SDS011;18096;48.142;16.290;2023-03-01T00:01:20;17.92;;;10.90;;
14094;SDS011;18096;48.142;16.290;2023-03-01T00:03:48;15.35;;;10.52;;
14094;SDS011;18096;48.142;16.290;2023-03-01T00:06:14;13.82;;;9.23;;
14094;SDS011;18096;48.142;16.290;2023-03-01T00:08:40;21.55;;;11.75;;
14094;SDS011;18096;48.142;16.290;2023-03-01T00:13:52;15.88;;;10.90;;
14094;SDS011;18096;48.142;16.290;2023-03-01T00:16:21;20.37;;;10.80;;
14094;SDS011;18096;48.142;16.290;2023-03-01T00:18:53;15.93;;;11.20;;
14094;SDS011;18096;48.142;16.290;2023-03-01T00:21:19;23.50;;;12.07;;
14094;SDS011;18096;48.142;16.290;2023-03-01T00:23:47;15.05;;;10.48;;
14094;SDS011;18096;48.142;16.290;2023-03-01T00:26:13;17.92;;;10.98;;
14094;SDS011;18096;48.142;16.290;2023-03-01T00:28:40;19.88;;;11.55;;
14094;SDS011;18096;48.142;16.290;2023-03-01T00:31:07;16.17;;;10.48;;
14094;SDS011;18096;48.142;16.290;2023-03-01T00:33:38;15.43;;;10.80;;
14094;SDS011;18096;48.142;16.290;2023-03-01T00:36:04;23.42;;;11.35;;
14094;SDS011;18096;48.142;16.290;2023-03-01T00:38:34;20.35;;;10.63;;
14094;SDS011;18096;48.142;16.290;2023-03-01T00:41:08;22.55;;;10.93;;
14094;SDS011;18096;48.142;16.290;2023-03-01T00:43:44;21.20;;;11.52;;
14094;SDS011;18096;48.142;16.290;2023-03-01T00:46:11;17.90;;;10.68;;
14094;SDS011;18096;48.142;16.290;2023-03-01T00:48:39;19.15;;;11.00;;
14094;SDS011;18096;48.142;16.290;2023-03-01T00:51:09;14.55;;;10.10;;
14094;SDS011;18096;48.142;16.290;2023-03-01T00:53:56;19.67;;;10.60;;
14094;SDS011;18096;48.142;16.290;2023-03-01T00:56:23;13.40;;;9.50;;
14094;SDS011;18096;48.142;16.290;2023-03-01T00:58:49;22.83;;;11.10;;
14094;SDS011;18096;48.142;16.290;2023-03-01T01:01:19;16.60;;;10.55;;
14094;SDS011;18096;48.142;16.290;2023-03-01T01:03:48;15.13;;;10.37;;
14094;SDS011;18096;48.142;16.290;2023-03-01T01:06:16;14.30;;;9.98;;
14094;SDS011;18096;48.142;16.290;2023-03-01T01:08:44;13.52;;;9.25;;
14094;SDS011;18096;48.142;16.290;2023-03-01T01:11:10;17.63;;;10.20;;
14094;SDS011;18096;48.142;16.290;2023-03-01T01:13:36;14.35;;;9.48;;
14094;SDS011;18096;48.142;16.290;2023-03-01T01:16:03;20.80;;;11.05;;
14094;SDS011;18096;48.142;16.290;2023-03-01T01:18:29;22.35;;;10.85;;
14094;SDS011;18096;48.142;16.290;2023-03-01T01:20:55;24.05;;;11.40;;
14094;SDS011;18096;48.142;16.290;2023-03-01T01:23:20;29.38;;;10.98;;
14094;SDS011;18096;48.142;16.290;2023-03-01T01:25:46;14.07;;;10.47;;
14094;SDS011;18096;48.142;16.290;2023-03-01T01:28:12;19.50;;;10.13;;
14094;SDS011;18096;48.142;16.290;2023-03-01T01:30:37;18.97;;;11.40;;
14094;SDS011;18096;48.142;16.290;2023-03-01T01:33:03;24.63;;;10.20;;
14094;SDS011;18096;48.142;16.290;2023-03-01T01:35:29;18.83;;;10.88;;
14094;SDS011;18096;48.142;16.290;2023-03-01T01:37:54;15.20;;;11.07;;
14094;SDS011;18096;48.142;16.290;2023-03-01T01:40:20;21.40;;;10.50;;
14094;SDS011;18096;48.142;16.290;2023-03-01T01:42:46;17.73;;;10.67;;
14094;SDS011;18096;48.142;16.290;2023-03-01T01:45:25;24.60;;;11.37;;
14094;SDS011;18096;48.142;16.290;2023-03-01T01:47:55;24.25;;;10.68;;
14094;SDS011;18096;48.142;16.290;2023-03-01T01:50:25;15.07;;;10.80;;
14094;SDS011;18096;48.142;16.290;2023-03-01T01:52:52;18.02;;;10.90;;
14094;SDS011;18096;48.142;16.290;2023-03-01T01:55:21;19.58;;;11.13;;
14094;SDS011;18096;48.142;16.290;2023-03-01T01:57:53;23.92;;;10.95;;
14094;SDS011;18096;48.142;16.290;2023-03-01T02:00:25;16.75;;;12.00;;
14094;SDS011;18096;48.142;16.290;2023-03-01T02:03:03;20.63;;;11.63;;
14094;SDS011;18096;48.142;16.290;2023-03-01T02:08:25;16.60;;;10.52;;
14094;SDS011;18096;48.142;16.290;2023-03-01T02:10:55;18.08;;;11.20;;
14094;SDS011;18096;48.142;16.290;2023-03-01T02:13:22;21.08;;;10.93;;
14094;SDS011;18096;48.142;16.290;2023-03-01T02:15:48;18.20;;;11.00;;
14094;SDS011;18096;48.142;16.290;2023-03-01T02:18:15;20.85;;;11.05;;
14094;SDS011;18096;48.142;16.290;2023-03-01T02:23:29;21.90;;;10.80;;
14094;SDS011;18096;48.142;16.290;2023-03-01T02:25:58;12.33;;;9.83;;
14094;SDS011;18096;48.142;16.290;2023-03-01T02:28:36;20.40;;;10.60;;
14094;SDS011;18096;48.142;16.290;2023-03-01T02:31:05;21.47;;;10.87;;
14094;SDS011;18096;48.142;16.290;2023-03-01T02:33:50;22.27;;;11.53;;
14094;SDS011;18096;48.142;16.290;2023-03-01T02:36:21;22.95;;;10.77;;
14094;SDS011;18096;48.142;16.290;2023-03-01T02:38:51;17.75;;;10.90;;
14094;SDS011;18096;48.142;16.290;2023-03-01T02:41:21;19.25;;;11.25;;
14094;SDS011;18096;48.142;16.290;2023-03-01T02:43:48;22.70;;;12.40;;
14094;SDS011;18096;48.142;16.290;2023-03-01T02:46:21;18.45;;;10.30;;
14094;SDS011;18096;48.142;16.290;2023-03-01T02:48:49;21.15;;;10.52;;
14094;SDS011;18096;48.142;16.290;2023-03-01T02:51:38;22.42;;;11.82;;
14094;SDS011;18096;48.142;16.290;2023-03-01T02:54:24;15.93;;;11.27;;
14094;SDS011;18096;48.142;16.290;2023-03-01T02:56:54;22.48;;;11.88;;
14094;SDS011;18096;48.142;16.290;2023-03-01T02:59:22;16.38;;;10.13;;
14094;SDS011;18096;48.142;16.290;2023-03-01T03:01:52;22.10;;;11.45;;
14094;SDS011;18096;48.142;16.290;2023-03-01T03:04:18;20.88;;;11.00;;
14094;SDS011;18096;48.142;16.290;2023-03-01T03:06:46;14.32;;;10.40;;
14094;SDS011;18096;48.142;16.290;2023-03-01T03:09:13;23.67;;;11.93;;
14094;SDS011;18096;48.142;16.290;2023-03-01T03:11:39;19.33;;;11.60;;
14094;SDS011;18096;48.142;16.290;2023-03-01T03:14:06;19.67;;;11.02;;
14094;SDS011;18096;48.142;16.290;2023-03-01T03:16:55;19.65;;;11.38;;
14094;SDS011;18096;48.142;16.290;2023-03-01T03:19:21;21.45;;;11.98;;
14094;SDS011;18096;48.142;16.290;2023-03-01T03:21:47;24.25;;;13.85;;
14094;SDS011;18096;48.142;16.290;2023-03-01T03:24:13;25.58;;;12.70;;
14094;SDS011;18096;48.142;16.290;2023-03-01T03:26:38;22.75;;;13.10;;
14094;SDS011;18096;48.142;16.290;2023-03-01T03:29:04;23.40;;;13.43;;
14094;SDS011;18096;48.142;16.290;2023-03-01T03:31:30;24.03;;;12.20;;
14094;SDS011;18096;48.142;16.290;2023-03-01T03:33:55;21.40;;;13.33;;
14094;SDS011;18096;48.142;16.290;2023-03-01T03:36:23;28.98;;;13.57;;
14094;SDS011;18096;48.142;16.290;2023-03-01T03:38:49;21.88;;;12.68;;
14094;SDS011;18096;48.142;16.290;2023-03-01T03:41:15;28.40;;;13.73;;
14094;SDS011;18096;48.142;16.290;2023-03-01T03:43:41;31.17;;;13.60;;
14094;SDS011;18096;48.142;16.290;2023-03-01T03:46:08;22.43;;;13.20;;
14094;SDS011;18096;48.142;16.290;2023-03-01T03:48:42;23.33;;;14.20;;
14094;SDS011;18096;48.142;16.290;2023-03-01T03:51:09;23.08;;;13.70;;
14094;SDS011;18096;48.142;16.290;2023-03-01T03:53:37;34.53;;;14.80;;
14094;SDS011;18096;48.142;16.290;2023-03-01T03:56:03;22.27;;;13.77;;
14094;SDS011;18096;48.142;16.290;2023-03-01T03:58:29;29.05;;;14.10;;
14094;SDS011;18096;48.142;16.290;2023-03-01T04:00:55;37.07;;;14.50;;
14094;SDS011;18096;48.142;16.290;2023-03-01T04:03:22;21.10;;;13.20;;
14094;SDS011;18096;48.142;16.290;2023-03-01T04:05:50;21.43;;;13.43;;
14094;SDS011;18096;48.142;16.290;2023-03-01T04:08:17;27.55;;;13.75;;
14094;SDS011;18096;48.142;16.290;2023-03-01T04:10:46;27.00;;;14.52;;
14094;SDS011;18096;48.142;16.290;2023-03-01T04:13:14;27.95;;;14.23;;
14094;SDS011;18096;48.142;16.290;2023-03-01T04:15:41;22.58;;;13.85;;
14094;SDS011;18096;48.142;16.290;2023-03-01T04:18:08;21.85;;;14.70;;
14094;SDS011;18096;48.142;16.290;2023-03-01T04:20:36;20.73;;;14.10;;
14094;SDS011;18096;48.142;16.290;2023-03-01T04:25:38;25.50;;;13.27;;
14094;SDS011;18096;48.142;16.290;2023-03-01T04:28:05;29.10;;;14.07;;
14094;SDS011;18096;48.142;16.290;2023-03-01T04:30:31;25.85;;;13.80;;
14094;SDS011;18096;48.142;16.290;2023-03-01T04:33:01;29.88;;;14.05;;
14094;SDS011;18096;48.142;16.290;2023-03-01T04:35:31;26.00;;;14.52;;
14094;SDS011;18096;48.142;16.290;2023-03-01T04:37:57;31.30;;;14.98;;
14094;SDS011;18096;48.142;16.290;2023-03-01T04:40:23;28.90;;;14.50;;
14094;SDS011;18096;48.142;16.290;2023-03-01T04:42:50;25.15;;;15.18;;
14094;SDS011;18096;48.142;16.290;2023-03-01T04:45:15;24.20;;;14.32;;
14094;SDS011;18096;48.142;16.290;2023-03-01T04:47:41;28.60;;;14.50;;
14094;SDS011;18096;48.142;16.290;2023-03-01T04:50:09;26.15;;;14.93;;
14094;SDS011;18096;48.142;16.290;2023-03-01T04:52:36;32.42;;;16.10;;
14094;SDS011;18096;48.142;16.290;2023-03-01T04:55:02;26.92;;;15.32;;
14094;SDS011;18096;48.142;16.290;2023-03-01T04:57:29;30.95;;;15.77;;
14094;SDS011;18096;48.142;16.290;2023-03-01T04:59:55;33.67;;;15.27;;
14094;SDS011;18096;48.142;16.290;2023-03-01T05:02:21;33.27;;;15.70;;
14094;SDS011;18096;48.142;16.290;2023-03-01T05:04:47;28.80;;;15.50;;
14094;SDS011;18096;48.142;16.290;2023-03-01T05:07:12;30.63;;;15.65;;
14094;SDS011;18096;48.142;16.290;2023-03-01T05:09:45;27.17;;;15.40;;
14094;SDS011;18096;48.142;16.290;2023-03-01T05:12:11;24.67;;;14.82;;
14094;SDS011;18096;48.142;16.290;2023-03-01T05:14:38;31.88;;;16.38;;
14094;SDS011;18096;48.142;16.290;2023-03-01T05:17:04;29.25;;;16.63;;
14094;SDS011;18096;48.142;16.290;2023-03-01T05:19:30;29.55;;;15.63;;
14094;SDS011;18096;48.142;16.290;2023-03-01T05:21:56;23.02;;;16.25;;
14094;SDS011;18096;48.142;16.290;2023-03-01T05:24:34;25.25;;;15.18;;
14094;SDS011;18096;48.142;16.290;2023-03-01T05:27:00;28.45;;;15.90;;
14094;SDS011;18096;48.142;16.290;2023-03-01T05:29:27;31.00;;;16.27;;
14094;SDS011;18096;48.142;16.290;2023-03-01T05:31:56;26.75;;;14.55;;
14094;SDS011;18096;48.142;16.290;2023-03-01T05:34:27;33.30;;;15.73;;
14094;SDS011;18096;48.142;16.290;2023-03-01T05:36:58;28.77;;;15.90;;
14094;SDS011;18096;48.142;16.290;2023-03-01T05:39:25;31.10;;;16.87;;
14094;SDS011;18096;48.142;16.290;2023-03-01T05:41:52;28.27;;;15.37;;
14094;SDS011;18096;48.142;16.290;2023-03-01T05:44:19;32.72;;;14.85;;
14094;SDS011;18096;48.142;16.290;2023-03-01T05:46:45;33.00;;;17.23;;
14094;SDS011;18096;48.142;16.290;2023-03-01T05:49:11;33.13;;;15.77;;
14094;SDS011;18096;48.142;16.290;2023-03-01T05:51:41;22.20;;;14.18;;
14094;SDS011;18096;48.142;16.290;2023-03-01T05:54:08;29.40;;;15.75;;
14094;SDS011;18096;48.142;16.290;2023-03-01T05:56:34;30.85;;;15.23;;
14094;SDS011;18096;48.142;16.290;2023-03-01T05:59:02;31.80;;;16.05;;
14094;SDS011;18096;48.142;16.290;2023-03-01T06:01:30;28.75;;;16.15;;
14094;SDS011;18096;48.142;16.290;2023-03-01T06:03:56;34.10;;;16.45;;
14094;SDS011;18096;48.142;16.290;2023-03-01T06:06:22;25.27;;;16.08;;
14094;SDS011;18096;48.142;16.290;2023-03-01T06:08:48;33.83;;;17.08;;
14094;SDS011;18096;48.142;16.290;2023-03-01T06:11:15;37.22;;;17.70;;
14094;SDS011;18096;48.142;16.290;2023-03-01T06:13:41;27.27;;;16.40;;
14094;SDS011;18096;48.142;16.290;2023-03-01T06:16:08;28.80;;;16.90;;
14094;SDS011;18096;48.142;16.290;2023-03-01T06:18:34;36.95;;;17.00;;
14094;SDS011;18096;48.142;16.290;2023-03-01T06:21:00;29.92;;;16.95;;
14094;SDS011;18096;48.142;16.290;2023-03-01T06:23:26;22.98;;;15.52;;
14094;SDS011;18096;48.142;16.290;2023-03-01T06:25:51;33.28;;;16.13;;
14094;SDS011;18096;48.142;16.290;2023-03-01T06:28:17;31.50;;;15.03;;
14094;SDS011;18096;48.142;16.290;2023-03-01T06:30:43;36.00;;;15.80;;
14094;SDS011;18096;48.142;16.290;2023-03-01T06:33:09;26.95;;;16.75;;
14094;SDS011;18096;48.142;16.290;2023-03-01T06:35:34;36.20;;;15.88;;
14094;SDS011;18096;48.142;16.290;2023-03-01T06:38:01;29.90;;;17.97;;
14094;SDS011;18096;48.142;16.290;2023-03-01T06:40:28;38.25;;;17.63;;
14094;SDS011;18096;48.142;16.290;2023-03-01T06:42:56;40.20;;;17.13;;
14094;SDS011;18096;48.142;16.290;2023-03-01T06:45:22;34.90;;;17.80;;
14094;SDS011;18096;48.142;16.290;2023-03-01T06:47:48;33.10;;;17.67;;
14094;SDS011;18096;48.142;16.290;2023-03-01T06:50:14;39.35;;;17.38;;
14094;SDS011;18096;48.142;16.290;2023-03-01T06:52:40;30.50;;;17.42;;
14094;SDS011;18096;48.142;16.290;2023-03-01T06:55:06;29.67;;;16.90;;
14094;SDS011;18096;48.142;16.290;2023-03-01T06:57:32;32.78;;;16.98;;
14094;SDS011;18096;48.142;16.290;2023-03-01T06:59:58;39.93;;;17.60;;
14094;SDS011;18096;48.142;16.290;2023-03-01T07:02:24;35.63;;;16.70;;
14094;SDS011;18096;48.142;16.290;2023-03-01T07:04:50;32.47;;;16.90;;
14094;SDS011;18096;48.142;16.290;2023-03-01T07:07:16;33.45;;;19.05;;
14094;SDS011;18096;48.142;16.290;2023-03-01T07:09:43;37.47;;;18.15;;
14094;SDS011;18096;48.142;16.290;2023-03-01T07:12:13;39.22;;;19.38;;
14094;SDS011;18096;48.142;16.290;2023-03-01T07:14:39;33.90;;;17.85;;
14094;SDS011;18096;48.142;16.290;2023-03-01T07:17:05;37.63;;;17.70;;
14094;SDS011;18096;48.142;16.290;2023-03-01T07:19:31;32.55;;;17.10;;
14094;SDS011;18096;48.142;16.290;2023-03-01T07:21:57;30.70;;;16.58;;
14094;SDS011;18096;48.142;16.290;2023-03-01T07:24:22;33.43;;;18.10;;
14094;SDS011;18096;48.142;16.290;2023-03-01T07:26:49;31.70;;;17.57;;
14094;SDS011;18096;48.142;16.290;2023-03-01T07:29:15;43.60;;;19.38;;
14094;SDS011;18096;48.142;16.290;2023-03-01T07:31:41;32.03;;;18.83;;
14094;SDS011;18096;48.142;16.290;2023-03-01T07:34:07;27.77;;;17.83;;
14094;SDS011;18096;48.142;16.290;2023-03-01T07:36:33;31.03;;;17.67;;
14094;SDS011;18096;48.142;16.290;2023-03-01T07:38:59;34.33;;;17.90;;
14094;SDS011;18096;48.142;16.290;2023-03-01T07:41:27;31.20;;;17.40;;
14094;SDS011;18096;48.142;16.290;2023-03-01T07:43:53;30.70;;;18.35;;
14094;SDS011;18096;48.142;16.290;2023-03-01T07:46:18;38.50;;;18.50;;
14094;SDS011;18096;48.142;16.290;2023-03-01T07:48:44;29.27;;;18.33;;
14094;SDS011;18096;48.142;16.290;2023-03-01T07:51:10;33.17;;;16.95;;
14094;SDS011;18096;48.142;16.290;2023-03-01T07:53:36;31.73;;;18.17;;
14094;SDS011;18096;48.142;16.290;2023-03-01T07:56:06;37.50;;;20.20;;
14094;SDS011;18096;48.142;16.290;2023-03-01T07:58:34;38.05;;;18.60;;
14094;SDS011;18096;48.142;16.290;2023-03-01T08:01:04;32.75;;;18.27;;
14094;SDS011;18096;48.142;16.290;2023-03-01T08:03:31;39.20;;;19.35;;
14094;SDS011;18096;48.142;16.290;2023-03-01T08:05:59;41.33;;;19.83;;
14094;SDS011;18096;48.142;16.290;2023-03-01T08:08:25;36.50;;;18.43;;
14094;SDS011;18096;48.142;16.290;2023-03-01T08:10:51;38.17;;;18.70;;
14094;SDS011;18096;48.142;16.290;2023-03-01T08:13:17;35.83;;;20.50;;
14094;SDS011;18096;48.142;16.290;2023-03-01T08:15:47;24.55;;;16.88;;
14094;SDS011;18096;48.142;16.290;2023-03-01T08:18:14;35.50;;;18.42;;
14094;SDS011;18096;48.142;16.290;2023-03-01T08:20:40;31.75;;;18.15;;
14094;SDS011;18096;48.142;16.290;2023-03-01T08:23:06;29.97;;;18.73;;
14094;SDS011;18096;48.142;16.290;2023-03-01T08:25:31;35.45;;;18.73;;
14094;SDS011;18096;48.142;16.290;2023-03-01T08:27:57;28.00;;;16.20;;
14094;SDS011;18096;48.142;16.290;2023-03-01T08:30:23;37.17;;;18.93;;
14094;SDS011;18096;48.142;16.290;2023-03-01T08:32:49;33.97;;;18.60;;
14094;SDS011;18096;48.142;16.290;2023-03-01T08:35:15;30.63;;;18.63;;
14094;SDS011;18096;48.142;16.290;2023-03-01T08:37:41;36.80;;;18.92;;
14094;SDS011;18096;48.142;16.290;2023-03-01T08:40:07;31.88;;;18.70;;
14094;SDS011;18096;48.142;16.290;2023-03-01T08:42:35;31.23;;;19.27;;
14094;SDS011;18096;48.142;16.290;2023-03-01T08:45:02;33.42;;;17.70;;
14094;SDS011;18096;48.142;16.290;2023-03-01T08:47:28;39.17;;;18.83;;
14094;SDS011;18096;48.142;16.290;2023-03-01T08:49:54;34.50;;;18.03;;
14094;SDS011;18096;48.142;16.290;2023-03-01T08:52:20;28.93;;;17.37;;
14094;SDS011;18096;48.142;16.290;2023-03-01T08:54:47;28.77;;;17.10;;
14094;SDS011;18096;48.142;16.290;2023-03-01T08:57:13;36.50;;;18.80;;
14094;SDS011;18096;48.142;16.290;2023-03-01T08:59:39;30.47;;;17.90;;
14094;SDS011;18096;48.142;16.290;2023-03-01T09:02:06;30.25;;;17.30;;
14094;SDS011;18096;48.142;16.290;2023-03-01T09:04:43;31.50;;;17.10;;
14094;SDS011;18096;48.142;16.290;2023-03-01T09:07:09;30.92;;;18.40;;
14094;SDS011;18096;48.142;16.290;2023-03-01T09:09:35;38.03;;;17.75;;
14094;SDS011;18096;48.142;16.290;2023-03-01T09:12:02;29.77;;;17.38;;
14094;SDS011;18096;48.142;16.290;2023-03-01T09:14:28;37.60;;;17.88;;
14094;SDS011;18096;48.142;16.290;2023-03-01T09:16:54;33.40;;;16.35;;
14094;SDS011;18096;48.142;16.290;2023-03-01T09:19:20;35.53;;;16.58;;
14094;SDS011;18096;48.142;16.290;2023-03-01T09:21:46;31.55;;;16.27;;
14094;SDS011;18096;48.142;16.290;2023-03-01T09:24:21;34.42;;;15.05;;
14094;SDS011;18096;48.142;16.290;2023-03-01T09:26:48;29.23;;;14.90;;
14094;SDS011;18096;48.142;16.290;2023-03-01T09:29:15;32.25;;;17.33;;
14094;SDS011;18096;48.142;16.290;2023-03-01T09:31:42;26.17;;;14.03;;
14094;SDS011;18096;48.142;16.290;2023-03-01T09:34:08;30.42;;;14.60;;
14094;SDS011;18096;48.142;16.290;2023-03-01T09:36:34;25.17;;;13.60;;
14094;SDS011;18096;48.142;16.290;2023-03-01T09:39:01;26.90;;;14.70;;
14094;SDS011;18096;48.142;16.290;2023-03-01T09:46:55;34.97;;;16.25;;
14094;SDS011;18096;48.142;16.290;2023-03-01T09:49:23;27.70;;;15.45;;
14094;SDS011;18096;48.142;16.290;2023-03-01T09:55:07;26.17;;;13.73;;
14094;SDS011;18096;48.142;16.290;2023-03-01T09:57:53;22.63;;;13.32;;
14094;SDS011;18096;48.142;16.290;2023-03-01T10:00:43;22.25;;;14.30;;
14094;SDS011;18096;48.142;16.290;2023-03-01T10:08:38;35.15;;;13.30;;
14094;SDS011;18096;48.142;16.290;2023-03-01T10:11:19;25.08;;;13.32;;
14094;SDS011;18096;48.142;16.290;2023-03-01T10:14:03;21.20;;;13.38;;
14094;SDS011;18096;48.142;16.290;2023-03-01T10:16:59;30.05;;;14.05;;
14094;SDS011;18096;48.142;16.290;2023-03-01T10:19:42;24.33;;;13.38;;
14094;SDS011;18096;48.142;16.290;2023-03-01T10:22:30;26.00;;;13.63;;
14094;SDS011;18096;48.142;16.290;2023-03-01T10:24:57;24.75;;;12.20;;
14094;SDS011;18096;48.142;16.290;2023-03-01T10:32:56;23.98;;;13.15;;
14094;SDS011;18096;48.142;16.290;2023-03-01T10:35:24;20.15;;;11.80;;
14094;SDS011;18096;48.142;16.290;2023-03-01T10:38:08;23.55;;;12.90;;
14094;SDS011;18096;48.142;16.290;2023-03-01T10:40:36;24.20;;;12.60;;
14094;SDS011;18096;48.142;16.290;2023-03-01T10:43:15;25.42;;;11.63;;
14094;SDS011;18096;48.142;16.290;2023-03-01T10:45:42;21.57;;;11.97;;
14094;SDS011;18096;48.142;16.290;2023-03-01T10:50:33;21.57;;;12.33;;
14094;SDS011;18096;48.142;16.290;2023-03-01T10:53:00;24.38;;;12.38;;
14094;SDS011;18096;48.142;16.290;2023-03-01T10:55:30;20.30;;;11.80;;
14094;SDS011;18096;48.142;16.290;2023-03-01T10:58:07;24.52;;;11.90;;
14094;SDS011;18096;48.142;16.290;2023-03-01T11:00:33;20.23;;;11.85;;
14094;SDS011;18096;48.142;16.290;2023-03-01T11:03:11;21.40;;;12.65;;
14094;SDS011;18096;48.142;16.290;2023-03-01T11:05:52;21.60;;;12.18;;
14094;SDS011;18096;48.142;16.290;2023-03-01T11:13:38;16.60;;;9.98;;
14094;SDS011;18096;48.142;16.290;2023-03-01T11:16:22;16.40;;;10.80;;
14094;SDS011;18096;48.142;16.290;2023-03-01T11:18:57;29.60;;;11.20;;
14094;SDS011;18096;48.142;16.290;2023-03-01T11:21:39;19.40;;;12.57;;
14094;SDS011;18096;48.142;16.290;2023-03-01T11:24:18;23.63;;;12.13;;
14094;SDS011;18096;48.142;16.290;2023-03-01T11:26:47;19.40;;;12.02;;
14094;SDS011;18096;48.142;16.290;2023-03-01T11:29:21;17.75;;;11.10;;
14094;SDS011;18096;48.142;16.290;2023-03-01T11:31:55;18.70;;;11.63;;
14094;SDS011;18096;48.142;16.290;2023-03-01T11:34:28;20.93;;;10.80;;
14094;SDS011;18096;48.142;16.290;2023-03-01T11:37:13;15.88;;;10.10;;
14094;SDS011;18096;48.142;16.290;2023-03-01T11:45:19;16.65;;;10.15;;
14094;SDS011;18096;48.142;16.290;2023-03-01T11:50:52;21.05;;;11.45;;
14094;SDS011;18096;48.142;16.290;2023-03-01T11:53:31;18.58;;;10.70;;
14094;SDS011;18096;48.142;16.290;2023-03-01T11:56:35;22.37;;;11.33;;
14094;SDS011;18096;48.142;16.290;2023-03-01T11:59:16;18.27;;;10.38;;
14094;SDS011;18096;48.142;16.290;2023-03-01T12:06:56;18.00;;;10.37;;
14094;SDS011;18096;48.142;16.290;2023-03-01T12:14:55;15.48;;;10.40;;
14094;SDS011;18096;48.142;16.290;2023-03-01T12:23:30;14.40;;;10.40;;
14094;SDS011;18096;48.142;16.290;2023-03-01T12:28:46;16.65;;;9.90;;
14094;SDS011;18096;48.142;16.290;2023-03-01T12:50:54;17.27;;;10.25;;
14094;SDS011;18096;48.142;16.290;2023-03-01T12:53:29;18.67;;;10.70;;
14094;SDS011;18096;48.142;16.290;2023-03-01T12:56:05;19.88;;;10.73;;
14094;SDS011;18096;48.142;16.290;2023-03-01T13:20:20;18.33;;;10.23;;
14094;SDS011;18096;48.142;16.290;2023-03-01T13:22:59;21.02;;;11.88;;
14094;SDS011;18096;48.142;16.290;2023-03-01T13:38:57;18.20;;;10.93;;
14094;SDS011;18096;48.142;16.290;2023-03-01T13:46:56;14.00;;;9.55;;
14094;SDS011;18096;48.142;16.290;2023-03-01T13:49:27;20.70;;;10.55;;
14094;SDS011;18096;48.142;16.290;2023-03-01T13:51:54;18.95;;;10.82;;
14094;SDS011;18096;48.142;16.290;2023-03-01T13:54:28;23.30;;;12.00;;
14094;SDS011;18096;48.142;16.290;2023-03-01T13:57:00;18.65;;;9.65;;
14094;SDS011;18096;48.142;16.290;2023-03-01T13:59:26;15.70;;;10.20;;
14094;SDS011;18096;48.142;16.290;2023-03-01T14:02:00;20.17;;;11.70;;
14094;SDS011;18096;48.142;16.290;2023-03-01T14:09:56;19.30;;;10.80;;
14094;SDS011;18096;48.142;16.290;2023-03-01T14:15:06;14.77;;;10.63;;
14094;SDS011;18096;48.142;16.290;2023-03-01T14:17:49;21.25;;;10.07;;
14094;SDS011;18096;48.142;16.290;2023-03-01T14:20:24;18.10;;;9.82;;
14094;SDS011;18096;48.142;16.290;2023-03-01T14:22:52;23.50;;;10.88;;
14094;SDS011;18096;48.142;16.290;2023-03-01T14:28:17;14.18;;;9.63;;
14094;SDS011;18096;48.142;16.290;2023-03-01T14:30:42;18.08;;;10.25;;
14094;SDS011;18096;48.142;16.290;2023-03-01T14:38:30;16.00;;;9.57;;
14094;SDS011;18096;48.142;16.290;2023-03-01T14:41:05;16.10;;;9.20;;
14094;SDS011;18096;48.142;16.290;2023-03-01T14:43:34;15.18;;;9.60;;
14094;SDS011;18096;48.142;16.290;2023-03-01T14:46:01;13.23;;;9.40;;
14094;SDS011;18096;48.142;16.290;2023-03-01T14:48:27;19.73;;;9.80;;
14094;SDS011;18096;48.142;16.290;2023-03-01T14:50:54;13.77;;;8.40;;
14094;SDS011;18096;48.142;16.290;2023-03-01T14:53:27;15.32;;;10.10;;
14094;SDS011;18096;48.142;16.290;2023-03-01T14:55:55;20.70;;;9.40;;
14094;SDS011;18096;48.142;16.290;2023-03-01T14:58:27;13.95;;;9.60;;
14094;SDS011;18096;48.142;16.290;2023-03-01T15:00:58;15.27;;;9.82;;
14094;SDS011;18096;48.142;16.290;2023-03-01T15:03:27;12.90;;;8.65;;
14094;SDS011;18096;48.142;16.290;2023-03-01T15:06:02;14.60;;;10.00;;
14094;SDS011;18096;48.142;16.290;2023-03-01T15:08:29;16.20;;;9.95;;
14094;SDS011;18096;48.142;16.290;2023-03-01T15:11:33;17.90;;;9.82;;
14094;SDS011;18096;48.142;16.290;2023-03-01T15:13:55;12.75;;;8.93;;
14094;SDS011;18096;48.142;16.290;2023-03-01T15:16:22;15.43;;;9.63;;
14094;SDS011;18096;48.142;16.290;2023-03-01T15:18:50;15.90;;;9.27;;
14094;SDS011;18096;48.142;16.290;2023-03-01T15:21:22;19.02;;;8.70;;
14094;SDS011;18096;48.142;16.290;2023-03-01T15:23:53;12.05;;;8.30;;
14094;SDS011;18096;48.142;16.290;2023-03-01T15:26:32;17.15;;;10.35;;
14094;SDS011;18096;48.142;16.290;2023-03-01T15:29:04;18.48;;;9.40;;
14094;SDS011;18096;48.142;16.290;2023-03-01T15:31:41;19.50;;;10.48;;
14094;SDS011;18096;48.142;16.290;2023-03-01T15:34:08;15.93;;;11.00;;
14094;SDS011;18096;48.142;16.290;2023-03-01T15:37:32;16.83;;;11.27;;
14094;SDS011;18096;48.142;16.290;2023-03-01T15:42:49;17.85;;;10.95;;
14094;SDS011;18096;48.142;16.290;2023-03-01T15:47:46;21.10;;;11.00;;
14094;SDS011;18096;48.142;16.290;2023-03-01T15:50:19;16.30;;;10.77;;
14094;SDS011;18096;48.142;16.290;2023-03-01T15:52:47;21.95;;;11.85;;
14094;SDS011;18096;48.142;16.290;2023-03-01T15:55:16;23.02;;;11.70;;
14094;SDS011;18096;48.142;16.290;2023-03-01T15:57:47;17.03;;;10.20;;
14094;SDS011;18096;48.142;16.290;2023-03-01T16:00:13;17.27;;;11.57;;
14094;SDS011;18096;48.142;16.290;2023-03-01T16:02:41;17.77;;;11.27;;
14094;SDS011;18096;48.142;16.290;2023-03-01T16:05:18;19.73;;;11.55;;
14094;SDS011;18096;48.142;16.290;2023-03-01T16:07:44;22.63;;;11.83;;
14094;SDS011;18096;48.142;16.290;2023-03-01T16:10:10;18.48;;;11.93;;
14094;SDS011;18096;48.142;16.290;2023-03-01T16:12:35;25.45;;;12.50;;
14094;SDS011;18096;48.142;16.290;2023-03-01T16:15:01;18.70;;;11.40;;
14094;SDS011;18096;48.142;16.290;2023-03-01T16:17:27;21.17;;;11.85;;
14094;SDS011;18096;48.142;16.290;2023-03-01T16:19:53;19.10;;;11.88;;
14094;SDS011;18096;48.142;16.290;2023-03-01T16:22:20;23.83;;;12.70;;
14094;SDS011;18096;48.142;16.290;2023-03-01T16:24:49;21.67;;;12.80;;
14094;SDS011;18096;48.142;16.290;2023-03-01T16:27:15;23.10;;;13.00;;
14094;SDS011;18096;48.142;16.290;2023-03-01T16:29:41;23.83;;;12.45;;
14094;SDS011;18096;48.142;16.290;2023-03-01T16:32:07;20.45;;;12.82;;
14094;SDS011;18096;48.142;16.290;2023-03-01T16:34:33;19.02;;;12.23;;
14094;SDS011;18096;48.142;16.290;2023-03-01T16:36:59;23.38;;;11.85;;
14094;SDS011;18096;48.142;16.290;2023-03-01T16:39:24;23.27;;;12.60;;
14094;SDS011;18096;48.142;16.290;2023-03-01T16:41:50;18.38;;;11.80;;
14094;SDS011;18096;48.142;16.290;2023-03-01T16:44:16;23.37;;;12.43;;
14094;SDS011;18096;48.142;16.290;2023-03-01T16:46:42;23.50;;;12.30;;
14094;SDS011;18096;48.142;16.290;2023-03-01T16:49:08;16.10;;;11.45;;
14094;SDS011;18096;48.142;16.290;2023-03-01T16:51:34;21.00;;;12.52;;